This is the latest recevied weather packets stored in our database for station/object GW7287. If no packets are shown the sender has not sent any weather packets the latest 10 day(s).
| Time | Temp. | Humidity | Pressure | Rain* | Wind** | Luminosity | Snow |
|---|---|---|---|---|---|---|---|
| 1787742079 | 24.44° C | 40% | 927 hPa | - | - | - | - |
| 1787740071 | 21.67° C | 47% | 927.4 hPa | - | - | - | - |
| 1787739879 | 21.67° C | 47% | 927.4 hPa | - | - | - | - |
| 1787736835 | 21.67° C | 47% | 927.4 hPa | - | - | - | - |
| 1787736673 | 21.67° C | 47% | 927.4 hPa | - | - | - | - |
| 1787733300 | 20° C | 52% | 926.9 hPa | - | - | - | - |
| 1787733097 | 20° C | 52% | 926.9 hPa | - | - | - | - |
| 1787730029 | 17.22° C | 61% | 927.9 hPa | - | - | - | - |
| 1787729872 | 17.22° C | 61% | 927.9 hPa | - | - | - | - |
| 1787727329 | 16.67° C | 61% | 927.8 hPa | - | - | - | - |
| 1787725893 | 16.67° C | 61% | 927.8 hPa | - | - | - | - |
| 1787723945 | 16.67° C | 60% | 927.9 hPa | - | - | - | - |
| 1787722038 | 17.22° C | 56% | 928.4 hPa | - | - | - | - |
| 1787721867 | 17.22° C | 56% | 928.4 hPa | - | - | - | - |
| 1787718769 | 17.22° C | 56% | 928.4 hPa | - | - | - | - |
| 1787718627 | 17.22° C | 56% | 928.4 hPa | - | - | - | - |
| 1787715876 | 17.78° C | 54% | 928.7 hPa | - | - | - | - |
| 1787715081 | 17.78° C | 54% | 928.7 hPa | - | - | - | - |
| 1787710906 | 18.33° C | 50% | 929.4 hPa | - | - | - | - |
| 1787710759 | 18.33° C | 50% | 929.4 hPa | - | - | - | - |
| 1787705705 | 18.89° C | 48% | 929.8 hPa | - | - | - | - |
| 1787704990 | 18.89° C | 48% | 929.8 hPa | - | - | - | - |
| 1787701589 | 19.44° C | 48% | 930.2 hPa | - | - | - | - |
| 1787699946 | 20.56° C | 47% | 930.5 hPa | - | - | - | - |
| 1787699822 | 20.56° C | 47% | 930.5 hPa | - | - | - | - |
* Rain since midnight (hover to see other rain measurements)
** Current wind speed in m/s (hover to see current wind gust speed)